Time;durP1;ratioP1;P1;durP2;ratioP2;P2;SDS_P1;SDS_P2;PMS_P1;PMS_P2;Temp;Humidity;BMP_temperature;BMP_pressure;BME280_temperature;BME280_humidity;BME280_pressure;Samples;Min_cycle;Max_cycle;Signal;HPM_P1;HPM_P2
2023/10/26 00:01:28;;;;;;;2.15;1.80;;;9.90;99.90;;;;;;5013750;28;20042;-65
2023/10/26 00:03:54;;;;;;;3.50;1.77;;;9.90;99.90;;;;;;5018711;28;20050;-64
2023/10/26 00:06:19;;;;;;;2.20;1.63;;;9.90;99.90;;;;;;5003176;28;20091;-64
2023/10/26 00:08:45;;;;;;;3.97;1.98;;;9.90;99.90;;;;;;5013043;28;20041;-64
2023/10/26 00:11:11;;;;;;;2.63;2.00;;;9.90;99.90;;;;;;5013684;28;20038;-64
2023/10/26 00:13:37;;;;;;;6.35;2.38;;;9.90;99.90;;;;;;5019095;28;20064;-64
2023/10/26 00:16:03;;;;;;;4.25;2.63;;;9.90;99.90;;;;;;5018495;28;20486;-65
2023/10/26 00:18:29;;;;;;;4.03;3.17;;;9.90;99.90;;;;;;5012193;28;20033;-65
2023/10/26 00:20:58;;;;;;;2.40;2.05;;;9.80;99.90;;;;;;5013906;28;20037;-65
2023/10/26 00:23:25;;;;;;;3.53;2.42;;;9.90;99.90;;;;;;5018543;28;20037;-65
2023/10/26 00:25:50;;;;;;;3.22;2.47;;;9.80;99.90;;;;;;5020169;28;20370;-65
2023/10/26 00:28:16;;;;;;;8.55;2.50;;;9.80;99.90;;;;;;5011678;28;20053;-65
2023/10/26 00:30:42;;;;;;;3.30;1.98;;;9.80;99.90;;;;;;5014539;28;20042;-65
2023/10/26 00:33:08;;;;;;;3.85;2.17;;;9.80;99.90;;;;;;5016955;28;20052;-65
2023/10/26 00:35:34;;;;;;;3.00;2.33;;;9.80;99.90;;;;;;5015863;28;20050;-65
2023/10/26 00:38:00;;;;;;;3.42;1.95;;;9.80;99.90;;;;;;5011602;28;20179;-65
2023/10/26 00:40:26;;;;;;;3.20;2.28;;;9.80;99.90;;;;;;5014663;28;20229;-65
2023/10/26 00:42:57;;;;;;;2.88;2.35;;;9.70;99.90;;;;;;5020483;28;20531;-65
2023/10/26 00:45:23;;;;;;;3.60;1.98;;;9.70;99.90;;;;;;5014112;28;20679;-65
2023/10/26 00:47:50;;;;;;;4.03;2.50;;;9.80;99.90;;;;;;5011452;28;20076;-65
2023/10/26 00:50:16;;;;;;;5.60;3.17;;;9.80;99.90;;;;;;5017518;28;20434;-66
2023/10/26 00:52:42;;;;;;;6.47;2.35;;;9.70;99.90;;;;;;4986332;28;20112;-65
2023/10/26 00:55:09;;;;;;;2.75;1.92;;;9.70;99.90;;;;;;5013944;28;20045;-65
2023/10/26 00:57:36;;;;;;;3.03;2.00;;;9.70;99.90;;;;;;4986145;28;20096;-66
2023/10/26 01:00:02;;;;;;;3.45;2.50;;;9.70;99.90;;;;;;5017149;28;20044;-66
2023/10/26 01:02:29;;;;;;;5.90;2.72;;;9.70;99.90;;;;;;5019452;28;20057;-65
2023/10/26 01:04:54;;;;;;;3.60;1.98;;;9.70;99.90;;;;;;5016329;28;20080;-66
2023/10/26 01:07:20;;;;;;;3.38;2.30;;;9.70;99.90;;;;;;5012599;28;20082;-66
2023/10/26 01:09:47;;;;;;;4.05;2.47;;;9.70;99.90;;;;;;5013593;28;20045;-65
2023/10/26 01:12:13;;;;;;;4.63;2.85;;;9.60;99.90;;;;;;5019481;28;20080;-66
2023/10/26 01:14:39;;;;;;;4.38;2.38;;;9.60;99.90;;;;;;5015722;28;20128;-65
2023/10/26 01:17:05;;;;;;;3.15;2.40;;;9.60;99.90;;;;;;5018391;28;20472;-66
2023/10/26 01:19:46;;;;;;;3.65;2.30;;;9.60;99.90;;;;;;5018206;28;20458;-65
2023/10/26 01:22:12;;;;;;;5.85;2.85;;;9.60;99.90;;;;;;5020510;28;20162;-65
2023/10/26 01:24:38;;;;;;;6.03;2.55;;;9.60;99.90;;;;;;5011621;28;20086;-65
2023/10/26 01:27:04;;;;;;;3.65;2.58;;;9.60;99.90;;;;;;5021840;28;20485;-65
2023/10/26 01:29:31;;;;;;;5.00;2.38;;;9.60;99.90;;;;;;5020351;28;20156;-66
2023/10/26 01:31:56;;;;;;;3.47;2.13;;;9.60;99.90;;;;;;5000014;28;20050;-65
2023/10/26 01:34:22;;;;;;;6.82;2.17;;;9.60;99.90;;;;;;4995512;28;20052;-66
2023/10/26 01:36:48;;;;;;;5.15;2.70;;;9.60;99.90;;;;;;5019205;28;20046;-65
2023/10/26 01:39:16;;;;;;;4.82;2.17;;;9.60;99.90;;;;;;5019959;28;20033;-66
2023/10/26 01:41:43;;;;;;;8.38;2.40;;;9.60;99.90;;;;;;5020555;28;20080;-65
2023/10/26 01:44:08;;;;;;;3.53;2.22;;;9.60;99.90;;;;;;5014242;28;20120;-65
2023/10/26 01:46:34;;;;;;;3.55;2.22;;;9.60;99.90;;;;;;5020059;28;20076;-65
2023/10/26 01:49:01;;;;;;;3.83;2.90;;;9.60;99.90;;;;;;5019391;28;20077;-66
2023/10/26 01:51:27;;;;;;;4.32;2.58;;;9.60;99.90;;;;;;4993465;28;20401;-66
2023/10/26 01:53:53;;;;;;;4.75;2.35;;;9.60;99.90;;;;;;4998578;28;20128;-65
2023/10/26 01:56:18;;;;;;;4.85;2.65;;;9.60;99.90;;;;;;5014154;28;20034;-65
2023/10/26 01:58:45;;;;;;;3.30;2.30;;;9.60;99.90;;;;;;5000556;28;20034;-65
2023/10/26 02:01:11;;;;;;;4.82;2.38;;;9.60;99.90;;;;;;5016363;28;20059;-65
2023/10/26 02:03:36;;;;;;;4.28;2.85;;;9.60;99.90;;;;;;5003027;28;20133;-65
2023/10/26 02:06:03;;;;;;;5.45;2.15;;;9.60;99.90;;;;;;5012831;28;20128;-65
2023/10/26 02:08:29;;;;;;;7.22;3.60;;;9.60;99.90;;;;;;5020273;28;20049;-66
2023/10/26 02:10:55;;;;;;;4.63;2.65;;;9.60;99.90;;;;;;5023320;28;20068;-66
2023/10/26 02:13:20;;;;;;;4.15;2.88;;;9.60;99.90;;;;;;4995357;28;20073;-65
2023/10/26 02:15:46;;;;;;;4.75;2.53;;;9.60;99.90;;;;;;5014236;28;20508;-65
2023/10/26 02:18:12;;;;;;;4.30;2.50;;;9.60;99.90;;;;;;5021340;28;20053;-66
2023/10/26 02:20:38;;;;;;;4.28;3.20;;;9.60;99.90;;;;;;5022813;28;20034;-65
2023/10/26 02:23:04;;;;;;;6.45;3.28;;;9.60;99.90;;;;;;5017627;28;20389;-65
2023/10/26 02:25:30;;;;;;;5.13;2.90;;;9.60;99.90;;;;;;5015278;28;20108;-65
2023/10/26 02:27:57;;;;;;;5.03;2.88;;;9.50;99.90;;;;;;5022247;28;20466;-65
2023/10/26 02:30:22;;;;;;;3.78;3.10;;;9.60;99.90;;;;;;5018866;28;20046;-66
2023/10/26 02:32:48;;;;;;;4.20;2.65;;;9.60;99.90;;;;;;5016534;28;20037;-65
2023/10/26 02:35:15;;;;;;;7.70;3.15;;;9.60;99.90;;;;;;5023832;28;20198;-65
2023/10/26 02:37:41;;;;;;;4.70;2.75;;;9.60;99.90;;;;;;5025286;28;20049;-65
2023/10/26 02:40:08;;;;;;;3.72;2.55;;;9.60;99.90;;;;;;5018646;28;20475;-65
2023/10/26 02:42:35;;;;;;;3.58;2.60;;;9.60;99.90;;;;;;5011743;28;20037;-66
2023/10/26 02:45:03;;;;;;;7.38;4.13;;;9.60;99.90;;;;;;5020572;28;20611;-65
2023/10/26 02:47:29;;;;;;;4.78;3.08;;;9.50;99.90;;;;;;5023838;28;20053;-65
2023/10/26 02:49:55;;;;;;;6.88;3.50;;;9.60;99.90;;;;;;5016790;28;20034;-65
2023/10/26 02:52:20;;;;;;;5.07;2.90;;;9.50;99.90;;;;;;5006587;28;20147;-65
2023/10/26 02:54:46;;;;;;;4.68;3.22;;;9.50;99.90;;;;;;5024866;28;20042;-65
2023/10/26 02:57:14;;;;;;;7.53;3.45;;;9.60;99.90;;;;;;5017632;28;20033;-65
2023/10/26 02:59:40;;;;;;;3.95;2.67;;;9.60;99.90;;;;;;5004007;28;20539;-65
2023/10/26 03:02:06;;;;;;;14.95;3.03;;;9.50;99.90;;;;;;5025916;28;20038;-65
2023/10/26 03:04:34;;;;;;;4.75;3.58;;;9.50;99.90;;;;;;5023990;28;20042;-65
2023/10/26 03:07:00;;;;;;;8.88;3.20;;;9.50;99.90;;;;;;5020189;28;20046;-65
2023/10/26 03:09:26;;;;;;;6.60;3.35;;;9.50;99.90;;;;;;4997920;28;20408;-65
2023/10/26 03:11:52;;;;;;;5.30;3.22;;;9.50;99.90;;;;;;5000464;28;20137;-65
2023/10/26 03:14:18;;;;;;;4.75;3.50;;;9.50;99.90;;;;;;5015969;28;20037;-65
2023/10/26 03:16:44;;;;;;;7.07;3.92;;;9.50;99.90;;;;;;5019445;28;20034;-65
2023/10/26 03:19:10;;;;;;;3.72;3.28;;;9.50;99.90;;;;;;4997472;28;20038;-65
2023/10/26 03:21:35;;;;;;;5.50;3.75;;;9.50;99.90;;;;;;5020694;28;20038;-65
2023/10/26 03:24:01;;;;;;;5.43;3.08;;;9.50;99.90;;;;;;5021591;28;20121;-65
2023/10/26 03:26:27;;;;;;;4.20;3.00;;;9.50;99.90;;;;;;5019808;28;20520;-66
2023/10/26 03:28:52;;;;;;;6.72;3.30;;;9.50;99.90;;;;;;5012972;28;20030;-65
2023/10/26 03:31:18;;;;;;;7.07;4.00;;;9.50;99.90;;;;;;5017237;28;20473;-65
2023/10/26 03:33:44;;;;;;;4.82;3.28;;;9.50;99.90;;;;;;5022627;28;20038;-65
2023/10/26 03:36:18;;;;;;;4.55;2.97;;;9.50;99.90;;;;;;5015608;28;20046;-65
2023/10/26 03:38:45;;;;;;;6.18;3.38;;;9.50;99.90;;;;;;5012780;28;20041;-64
2023/10/26 03:41:11;;;;;;;4.53;3.15;;;9.50;99.90;;;;;;5000343;28;20137;-66
2023/10/26 03:43:37;;;;;;;6.35;3.67;;;9.50;99.90;;;;;;5021725;28;20045;-65
2023/10/26 03:46:04;;;;;;;6.53;4.00;;;9.50;99.90;;;;;;4994768;28;20052;-65
2023/10/26 03:48:31;;;;;;;6.15;4.00;;;9.50;99.90;;;;;;5012243;28;20073;-66
2023/10/26 03:50:57;;;;;;;6.32;3.67;;;9.50;99.90;;;;;;5023527;28;20049;-65
2023/10/26 03:53:22;;;;;;;7.55;4.10;;;9.50;99.90;;;;;;5020960;28;20060;-66
2023/10/26 03:55:48;;;;;;;6.57;3.67;;;9.40;99.90;;;;;;5013300;28;20039;-66
2023/10/26 03:58:15;;;;;;;5.43;3.63;;;9.50;99.90;;;;;;5012334;28;20042;-65
2023/10/26 04:00:41;;;;;;;5.18;3.55;;;9.50;99.90;;;;;;5017919;28;20041;-66
2023/10/26 04:03:07;;;;;;;5.13;3.63;;;9.40;99.90;;;;;;5021474;28;20554;-65
2023/10/26 04:05:33;;;;;;;6.80;3.25;;;9.50;99.90;;;;;;5003691;28;20054;-66
2023/10/26 04:08:02;;;;;;;12.73;3.90;;;9.50;99.90;;;;;;5022256;28;20053;-66
2023/10/26 04:10:28;;;;;;;5.15;2.95;;;9.50;99.90;;;;;;5016635;28;20041;-66
2023/10/26 04:12:54;;;;;;;6.85;3.63;;;9.40;99.90;;;;;;5022214;28;20107;-66
2023/10/26 04:15:20;;;;;;;6.32;3.88;;;9.40;99.90;;;;;;5006721;28;20049;-65
2023/10/26 04:17:46;;;;;;;7.30;3.70;;;9.40;99.90;;;;;;5012231;28;20486;-66
2023/10/26 04:20:12;;;;;;;6.45;3.53;;;9.40;99.90;;;;;;5016451;28;20052;-66
2023/10/26 04:22:37;;;;;;;6.40;4.13;;;9.40;99.90;;;;;;5021568;28;20037;-66
2023/10/26 04:25:04;;;;;;;6.13;4.05;;;9.40;99.90;;;;;;5026976;28;20504;-65
2023/10/26 04:27:34;;;;;;;8.68;4.50;;;9.40;99.90;;;;;;5014728;28;20034;-66
2023/10/26 04:30:00;;;;;;;7.07;3.80;;;9.40;99.90;;;;;;5004984;28;20057;-66
2023/10/26 04:32:25;;;;;;;5.93;3.83;;;9.50;99.90;;;;;;5004424;28;20053;-66
2023/10/26 04:34:51;;;;;;;6.07;4.15;;;9.40;99.90;;;;;;5019809;28;20060;-66
2023/10/26 04:37:17;;;;;;;5.68;3.85;;;9.40;99.90;;;;;;5018579;28;20121;-65
2023/10/26 04:39:45;;;;;;;7.25;4.13;;;9.50;99.90;;;;;;5017897;28;20053;-66
2023/10/26 04:42:12;;;;;;;5.97;4.65;;;9.40;99.90;;;;;;5019464;28;20189;-65
2023/10/26 04:44:38;;;;;;;6.85;4.20;;;9.40;99.90;;;;;;5012499;28;20049;-66
2023/10/26 04:47:04;;;;;;;9.75;5.50;;;9.40;99.90;;;;;;5014228;28;20117;-66
2023/10/26 04:49:30;;;;;;;7.38;4.35;;;9.40;99.90;;;;;;5017100;28;20117;-66
2023/10/26 04:51:56;;;;;;;6.32;3.58;;;9.40;99.90;;;;;;5016609;28;20469;-66
2023/10/26 04:54:22;;;;;;;7.57;4.22;;;9.40;99.90;;;;;;5018308;28;20037;-66
2023/10/26 04:56:47;;;;;;;5.72;4.20;;;9.40;99.90;;;;;;5001413;28;20041;-67
2023/10/26 04:59:13;;;;;;;7.75;4.63;;;9.40;99.90;;;;;;5004336;28;20081;-66
2023/10/26 05:01:39;;;;;;;6.47;4.18;;;9.40;99.90;;;;;;5017804;28;20126;-66
2023/10/26 05:04:05;;;;;;;5.13;3.67;;;9.40;99.90;;;;;;5011469;28;20084;-66
2023/10/26 05:06:30;;;;;;;12.90;4.13;;;9.40;99.90;;;;;;5012838;28;20096;-66
2023/10/26 05:08:56;;;;;;;5.43;4.18;;;9.40;99.90;;;;;;5017096;28;20490;-66
2023/10/26 05:11:22;;;;;;;5.32;3.83;;;9.30;99.90;;;;;;5016058;28;20056;-65
2023/10/26 05:13:52;;;;;;;8.20;4.97;;;9.30;99.90;;;;;;4997302;28;20042;-65
2023/10/26 05:16:18;;;;;;;8.43;4.65;;;9.20;99.90;;;;;;5013919;28;20048;-66
2023/10/26 05:18:43;;;;;;;6.78;3.92;;;9.10;99.90;;;;;;5002219;28;20490;-66
2023/10/26 05:21:09;;;;;;;6.95;4.38;;;9.10;99.90;;;;;;5014565;28;20053;-66
2023/10/26 05:23:35;;;;;;;6.20;3.92;;;9.00;99.90;;;;;;5016861;28;20092;-66
2023/10/26 05:26:01;;;;;;;5.90;3.28;;;9.00;99.90;;;;;;5018689;28;20037;-66
2023/10/26 05:28:27;;;;;;;7.75;3.92;;;8.90;99.90;;;;;;5017495;28;20038;-65
2023/10/26 05:30:53;;;;;;;6.30;3.65;;;8.80;99.90;;;;;;4997973;28;20088;-66
2023/10/26 05:33:19;;;;;;;6.50;3.63;;;8.80;99.90;;;;;;5010627;28;20037;-66
2023/10/26 05:35:44;;;;;;;5.57;3.70;;;8.70;99.90;;;;;;5015720;28;20038;-66
2023/10/26 05:38:10;;;;;;;4.70;3.03;;;8.70;99.90;;;;;;5000692;28;20052;-66
2023/10/26 05:40:36;;;;;;;7.88;4.07;;;8.60;99.90;;;;;;5014121;28;20487;-66
2023/10/26 05:43:02;;;;;;;5.38;3.42;;;8.60;99.90;;;;;;5010345;28;20483;-66
2023/10/26 05:45:29;;;;;;;6.10;3.17;;;8.50;99.90;;;;;;5019825;28;20223;-65
2023/10/26 05:47:55;;;;;;;5.57;4.05;;;8.40;99.90;;;;;;5002179;28;20052;-65
2023/10/26 05:50:24;;;;;;;6.22;3.75;;;8.40;99.90;;;;;;4996849;28;20335;-65
2023/10/26 05:52:49;;;;;;;6.72;4.55;;;8.40;99.90;;;;;;5021582;28;20042;-65
2023/10/26 05:55:15;;;;;;;7.40;4.38;;;8.40;99.90;;;;;;5001781;28;20041;-66
2023/10/26 05:57:41;;;;;;;4.97;3.33;;;8.40;99.90;;;;;;5016266;28;20038;-64
2023/10/26 06:00:09;;;;;;;6.18;3.50;;;8.50;99.90;;;;;;5013313;28;20042;-65
2023/10/26 06:02:35;;;;;;;5.28;3.63;;;8.40;99.90;;;;;;4980905;28;20403;-65
2023/10/26 06:05:01;;;;;;;7.55;3.25;;;8.40;99.90;;;;;;4991912;28;20064;-66
2023/10/26 06:07:26;;;;;;;6.50;3.50;;;8.40;99.90;;;;;;5010195;28;20050;-65
2023/10/26 06:09:52;;;;;;;6.13;3.22;;;8.30;99.90;;;;;;5007729;28;20045;-66
2023/10/26 06:12:18;;;;;;;6.32;3.88;;;8.40;99.90;;;;;;5018400;28;20151;-65
2023/10/26 06:14:43;;;;;;;8.15;4.03;;;8.30;99.90;;;;;;5016605;28;20084;-66
2023/10/26 06:17:10;;;;;;;6.65;3.70;;;8.40;99.90;;;;;;5021993;28;20132;-66
2023/10/26 06:19:35;;;;;;;8.02;4.70;;;8.40;99.90;;;;;;5016991;28;20045;-65
2023/10/26 06:22:02;;;;;;;10.18;4.20;;;8.40;99.90;;;;;;5012458;28;20049;-65
2023/10/26 06:24:28;;;;;;;7.70;3.97;;;8.40;99.90;;;;;;5016710;28;20052;-65
2023/10/26 06:26:54;;;;;;;6.35;4.05;;;8.40;99.90;;;;;;5003593;28;20389;-65
2023/10/26 06:29:19;;;;;;;5.63;3.50;;;8.40;99.90;;;;;;5015845;28;20038;-65
2023/10/26 06:31:45;;;;;;;4.25;3.00;;;8.40;99.90;;;;;;5014306;28;20034;-65
2023/10/26 06:34:11;;;;;;;5.22;3.67;;;8.40;99.90;;;;;;5016005;28;20046;-66
2023/10/26 06:36:37;;;;;;;5.05;2.97;;;8.50;99.90;;;;;;5022148;28;20439;-65
2023/10/26 06:39:02;;;;;;;5.20;3.00;;;8.40;99.90;;;;;;5011736;28;20044;-64
2023/10/26 06:41:28;;;;;;;3.35;2.33;;;8.40;99.90;;;;;;5013426;28;20026;-65
2023/10/26 06:43:55;;;;;;;3.70;2.42;;;8.50;99.90;;;;;;5017496;28;20045;-66
2023/10/26 06:46:21;;;;;;;5.05;2.95;;;8.50;99.90;;;;;;5017321;28;20122;-65
2023/10/26 06:48:48;;;;;;;6.82;3.22;;;8.50;99.90;;;;;;4999064;28;20071;-65
2023/10/26 06:51:14;;;;;;;5.15;3.05;;;8.50;99.90;;;;;;5015075;28;20656;-64
2023/10/26 06:53:39;;;;;;;4.05;2.42;;;8.60;99.90;;;;;;4989761;28;20124;-65
2023/10/26 06:56:14;;;;;;;3.75;2.40;;;8.60;99.90;;;;;;5003005;28;20042;-66
2023/10/26 06:58:42;;;;;;;4.45;2.78;;;8.50;99.90;;;;;;5010566;28;20042;-65
2023/10/26 07:01:08;;;;;;;6.85;3.00;;;8.60;99.90;;;;;;5018395;28;20037;-65
2023/10/26 07:03:33;;;;;;;5.85;2.55;;;8.60;99.90;;;;;;5019584;28;20053;-65
2023/10/26 07:06:03;;;;;;;4.43;2.95;;;8.70;99.90;;;;;;5020440;28;20078;-65
2023/10/26 07:08:29;;;;;;;5.13;3.50;;;8.70;99.90;;;;;;5019582;28;20050;-65
2023/10/26 07:10:55;;;;;;;6.05;2.75;;;8.80;99.90;;;;;;4992675;28;20115;-66
2023/10/26 07:13:21;;;;;;;4.93;3.60;;;8.80;99.90;;;;;;5017121;28;20076;-65
2023/10/26 07:15:47;;;;;;;9.05;3.28;;;8.90;99.90;;;;;;5015049;28;20052;-66
2023/10/26 07:18:15;;;;;;;5.68;3.45;;;8.90;99.90;;;;;;5013254;28;20046;-65
2023/10/26 07:20:41;;;;;;;7.78;3.45;;;8.90;99.90;;;;;;5016569;28;20068;-66
2023/10/26 07:23:06;;;;;;;29.20;4.07;;;9.00;99.90;;;;;;5019916;28;20470;-65
2023/10/26 07:25:35;;;;;;;6.22;3.55;;;9.00;99.90;;;;;;5025822;28;20044;-66
2023/10/26 07:28:02;;;;;;;10.98;4.03;;;9.00;99.90;;;;;;4999524;28;20117;-66
2023/10/26 07:30:28;;;;;;;10.52;4.47;;;9.10;99.90;;;;;;4998190;28;20049;-65
2023/10/26 07:32:53;;;;;;;8.45;4.45;;;9.10;99.90;;;;;;5018400;28;20479;-65
2023/10/26 07:35:20;;;;;;;6.60;4.15;;;9.20;99.90;;;;;;4998973;28;20042;-65
2023/10/26 07:37:47;;;;;;;6.68;3.78;;;9.20;99.90;;;;;;5014297;28;20605;-66
2023/10/26 07:40:13;;;;;;;7.88;4.55;;;9.30;99.90;;;;;;5024500;28;20520;-65
2023/10/26 07:42:38;;;;;;;7.03;4.20;;;9.30;99.90;;;;;;5020361;28;20128;-65
2023/10/26 07:45:06;;;;;;;6.28;4.50;;;9.30;99.90;;;;;;5014711;28;20553;-65
2023/10/26 07:47:33;;;;;;;6.75;4.47;;;9.40;99.90;;;;;;5013348;28;20060;-65
2023/10/26 07:49:59;;;;;;;7.47;4.50;;;9.40;99.90;;;;;;5006003;28;20042;-66
2023/10/26 07:52:24;;;;;;;8.35;5.00;;;9.50;99.90;;;;;;5023315;28;20091;-66
2023/10/26 07:54:50;;;;;;;8.90;5.18;;;9.60;99.90;;;;;;5001824;28;20046;-65
2023/10/26 07:57:16;;;;;;;7.60;4.38;;;9.60;99.90;;;;;;5010832;28;20049;-65
2023/10/26 07:59:42;;;;;;;8.27;4.88;;;9.70;99.90;;;;;;5019157;28;20045;-65
2023/10/26 08:02:08;;;;;;;7.57;4.57;;;9.70;99.90;;;;;;5020359;28;20045;-65
2023/10/26 08:04:34;;;;;;;7.20;5.20;;;9.70;99.90;;;;;;5018734;28;20451;-65
2023/10/26 08:07:00;;;;;;;10.05;5.40;;;9.80;99.90;;;;;;5014115;28;20058;-66
2023/10/26 08:09:31;;;;;;;7.10;4.63;;;9.80;99.90;;;;;;5015281;28;20099;-66
2023/10/26 08:11:57;;;;;;;8.27;6.10;;;9.80;99.90;;;;;;5005177;28;20049;-66
2023/10/26 08:14:24;;;;;;;8.98;5.47;;;9.90;99.90;;;;;;5025036;28;20040;-65
2023/10/26 08:16:50;;;;;;;8.85;5.60;;;10.00;99.90;;;;;;5018825;28;20487;-66
2023/10/26 08:19:15;;;;;;;10.55;5.47;;;9.90;99.90;;;;;;5020460;28;20041;-66
2023/10/26 08:21:41;;;;;;;8.77;5.50;;;10.00;99.90;;;;;;5016857;28;20493;-66
2023/10/26 08:24:07;;;;;;;10.60;5.15;;;10.00;99.90;;;;;;5012360;28;20057;-66
2023/10/26 08:26:32;;;;;;;14.77;6.72;;;10.10;99.90;;;;;;5002373;28;20085;-66
2023/10/26 08:28:58;;;;;;;7.07;4.85;;;10.10;99.90;;;;;;5022070;28;20041;-65
2023/10/26 08:31:24;;;;;;;9.02;5.70;;;10.10;99.90;;;;;;5002776;28;20056;-65
2023/10/26 08:33:49;;;;;;;10.55;5.65;;;10.10;99.90;;;;;;5019288;28;20076;-65
2023/10/26 08:36:15;;;;;;;12.18;5.03;;;10.10;99.90;;;;;;4998368;28;20461;-65
2023/10/26 08:38:41;;;;;;;7.55;5.18;;;10.10;99.90;;;;;;5021036;28;20167;-65
2023/10/26 08:41:12;;;;;;;9.13;4.30;;;10.10;99.90;;;;;;5018040;28;20503;-65
2023/10/26 08:43:39;;;;;;;9.50;5.38;;;10.10;99.90;;;;;;5025393;28;20046;-65
2023/10/26 08:46:08;;;;;;;7.85;4.90;;;10.20;99.90;;;;;;5006197;28;20049;-66
2023/10/26 08:48:38;;;;;;;11.20;5.80;;;10.60;99.90;;;;;;5022681;28;20121;-65
2023/10/26 08:51:04;;;;;;;8.70;5.22;;;10.80;99.90;;;;;;5015239;28;20060;-66
2023/10/26 08:53:34;;;;;;;8.88;5.75;;;11.00;99.90;;;;;;5011442;28;20049;-65
2023/10/26 08:56:00;;;;;;;8.05;4.95;;;11.20;99.90;;;;;;5015717;28;20405;-65
2023/10/26 08:58:26;;;;;;;8.93;5.25;;;11.30;99.90;;;;;;5019478;28;20137;-66
2023/10/26 09:00:52;;;;;;;9.05;5.75;;;11.30;99.90;;;;;;5022517;28;20124;-66
2023/10/26 09:03:19;;;;;;;6.35;4.28;;;11.10;99.90;;;;;;4995458;28;20496;-66
2023/10/26 09:05:53;;;;;;;9.60;5.47;;;11.00;99.90;;;;;;5020048;28;20041;-66
2023/10/26 09:08:18;;;;;;;7.70;4.63;;;10.90;99.90;;;;;;5004431;28;20049;-66
2023/10/26 09:10:44;;;;;;;10.13;5.95;;;10.80;99.90;;;;;;5005341;28;20046;-66
2023/10/26 09:13:11;;;;;;;6.10;4.65;;;10.80;99.90;;;;;;5012164;28;20038;-66
2023/10/26 09:15:49;;;;;;;8.15;5.93;;;10.80;99.90;;;;;;5014402;28;20037;-66
2023/10/26 09:18:16;;;;;;;9.05;4.93;;;10.80;99.90;;;;;;5021075;28;20044;-65
2023/10/26 09:20:43;;;;;;;7.60;4.82;;;10.80;99.90;;;;;;5019827;28;20134;-66
2023/10/26 09:23:27;;;;;;;7.93;5.50;;;10.80;99.90;;;;;;5012474;28;20084;-66
2023/10/26 09:26:03;;;;;;;12.43;6.07;;;10.80;99.90;;;;;;4997566;28;20045;-65
2023/10/26 09:28:29;;;;;;;11.05;5.75;;;10.80;99.90;;;;;;5020643;28;20030;-65
2023/10/26 09:30:59;;;;;;;6.50;4.05;;;10.90;99.90;;;;;;4995561;28;20072;-65
2023/10/26 09:33:26;;;;;;;7.47;4.95;;;11.10;99.90;;;;;;5015208;28;20125;-65
2023/10/26 09:35:52;;;;;;;7.65;4.82;;;11.10;99.90;;;;;;4999091;28;20177;-64
2023/10/26 09:38:36;;;;;;;9.20;4.93;;;11.10;99.90;;;;;;5016569;28;20041;-65
2023/10/26 09:41:06;;;;;;;7.15;4.15;;;11.10;99.90;;;;;;5012035;28;20037;-65
2023/10/26 09:43:32;;;;;;;6.15;4.55;;;11.10;99.90;;;;;;5001111;28;20116;-66
2023/10/26 09:45:58;;;;;;;6.93;4.03;;;11.20;99.90;;;;;;5019806;28;20597;-65
2023/10/26 09:48:26;;;;;;;7.97;4.70;;;11.40;99.90;;;;;;4999907;28;20398;-66
2023/10/26 09:50:53;;;;;;;8.70;5.10;;;11.50;99.90;;;;;;5010018;28;20041;-66
2023/10/26 09:53:20;;;;;;;9.88;4.70;;;11.60;99.90;;;;;;5015711;28;20076;-65
2023/10/26 09:55:48;;;;;;;7.43;4.25;;;11.60;99.90;;;;;;5001329;28;20562;-66
2023/10/26 09:58:16;;;;;;;11.55;5.00;;;11.50;99.90;;;;;;5011939;28;20100;-65
2023/10/26 10:00:41;;;;;;;7.72;5.32;;;11.50;99.90;;;;;;5010974;28;20069;-65
2023/10/26 10:03:12;;;;;;;7.50;4.10;;;11.40;99.90;;;;;;5019806;28;20533;-65
2023/10/26 10:05:39;;;;;;;7.65;3.78;;;11.40;99.90;;;;;;5014798;28;20037;-65
2023/10/26 10:08:06;;;;;;;10.45;4.85;;;11.40;99.90;;;;;;5002825;28;20049;-66
2023/10/26 10:10:33;;;;;;;6.78;4.10;;;11.40;99.90;;;;;;5009944;28;20034;-66
2023/10/26 10:12:59;;;;;;;6.80;3.78;;;11.50;99.90;;;;;;4997336;28;20507;-65
2023/10/26 10:15:38;;;;;;;6.68;4.22;;;11.40;99.90;;;;;;5015923;28;20076;-66
2023/10/26 10:18:08;;;;;;;8.82;4.97;;;11.40;99.90;;;;;;5013810;28;20393;-66
2023/10/26 10:20:35;;;;;;;5.78;3.33;;;11.40;99.90;;;;;;5014061;28;20128;-65
2023/10/26 10:23:02;;;;;;;8.20;4.47;;;11.50;99.90;;;;;;5001814;28;20046;-65
2023/10/26 10:25:49;;;;;;;9.07;4.18;;;11.50;99.90;;;;;;5015882;28;20048;-66
2023/10/26 10:28:16;;;;;;;5.82;3.80;;;11.60;99.90;;;;;;5009956;28;20436;-65
2023/10/26 10:30:55;;;;;;;7.60;4.03;;;11.60;99.90;;;;;;5015554;28;20096;-65
2023/10/26 10:34:15;;;;;;;6.15;3.83;;;11.50;99.90;;;;;;5002254;28;20560;-65
2023/10/26 10:37:21;;;;;;;4.95;3.53;;;11.40;99.90;;;;;;5007960;28;20129;-65
2023/10/26 10:40:12;;;;;;;5.63;3.28;;;11.30;99.90;;;;;;4912613;29;20047;-65
2023/10/26 10:42:57;;;;;;;6.25;4.07;;;11.20;99.90;;;;;;4927397;29;20531;-65
2023/10/26 10:45:23;;;;;;;7.00;3.63;;;11.20;99.90;;;;;;4994029;28;20057;-65
2023/10/26 10:47:49;;;;;;;5.72;3.35;;;11.20;99.90;;;;;;5013683;28;20042;-66
2023/10/26 10:50:21;;;;;;;6.88;3.67;;;11.30;99.90;;;;;;4998417;28;20041;-65
2023/10/26 10:52:49;;;;;;;4.95;2.83;;;11.30;99.90;;;;;;5002649;28;20128;-65
2023/10/26 10:55:33;;;;;;;6.30;4.05;;;11.60;99.90;;;;;;4998245;28;20052;-65
2023/10/26 10:58:00;;;;;;;5.85;3.72;;;11.90;99.90;;;;;;5011940;28;20095;-65
2023/10/26 11:00:44;;;;;;;6.13;4.18;;;12.10;99.90;;;;;;5018841;28;20060;-65
2023/10/26 11:03:20;;;;;;;6.45;3.72;;;12.30;99.90;;;;;;5015729;28;20519;-65
2023/10/26 11:05:46;;;;;;;7.55;3.95;;;12.60;99.90;;;;;;5012343;28;20084;-65
2023/10/26 11:08:12;;;;;;;5.47;3.05;;;13.00;99.90;;;;;;4980852;28;20065;-66
2023/10/26 11:10:38;;;;;;;4.25;3.20;;;14.10;99.90;;;;;;4990157;28;20343;-66
2023/10/26 11:13:05;;;;;;;7.10;4.30;;;15.10;99.90;;;;;;4983446;28;20046;-65
2023/10/26 11:15:34;;;;;;;7.40;3.38;;;15.90;99.90;;;;;;4983844;28;20434;-66
2023/10/26 11:18:01;;;;;;;6.30;3.45;;;15.90;99.90;;;;;;4983037;28;20420;-65
2023/10/26 11:20:33;;;;;;;5.30;3.45;;;15.50;99.90;;;;;;4985541;28;20049;-66
2023/10/26 11:22:59;;;;;;;4.90;2.88;;;15.00;99.90;;;;;;4965238;28;20047;-66
2023/10/26 11:25:26;;;;;;;6.38;3.42;;;14.70;99.90;;;;;;4966684;28;20077;-65
2023/10/26 11:27:52;;;;;;;5.75;3.10;;;14.80;99.90;;;;;;4970892;28;20046;-65
2023/10/26 11:30:17;;;;;;;4.22;2.75;;;14.70;99.90;;;;;;4987622;28;20438;-67
2023/10/26 11:32:44;;;;;;;5.25;3.00;;;14.30;99.90;;;;;;4981445;28;20097;-66
2023/10/26 11:35:14;;;;;;;4.45;2.70;;;13.70;99.90;;;;;;4957091;28;20050;-65
2023/10/26 11:37:55;;;;;;;3.47;2.03;;;13.30;99.90;;;;;;4977886;28;20112;-66
2023/10/26 11:40:29;;;;;;;4.30;3.03;;;13.10;99.90;;;;;;4970309;28;20398;-65
2023/10/26 11:42:59;;;;;;;5.32;3.10;;;12.80;99.90;;;;;;4982220;28;20054;-66
2023/10/26 11:45:26;;;;;;;3.10;1.85;;;12.70;99.90;;;;;;4970318;28;20382;-65
2023/10/26 11:47:54;;;;;;;4.20;2.83;;;12.60;99.90;;;;;;4966290;28;20050;-65
2023/10/26 11:50:24;;;;;;;4.22;2.75;;;12.40;99.90;;;;;;4984862;28;20050;-66
2023/10/26 11:52:50;;;;;;;4.35;2.70;;;12.30;99.90;;;;;;4984797;28;20182;-66
2023/10/26 11:55:17;;;;;;;4.30;2.83;;;12.20;99.90;;;;;;4983321;28;20041;-66
2023/10/26 11:57:45;;;;;;;5.15;3.47;;;12.10;99.90;;;;;;4979775;28;20260;-65
2023/10/26 12:00:12;;;;;;;5.95;3.47;;;11.90;99.90;;;;;;4984683;28;20161;-65
2023/10/26 12:02:38;;;;;;;6.55;3.20;;;11.90;99.90;;;;;;4989143;28;20038;-66
2023/10/26 12:05:04;;;;;;;5.18;3.10;;;11.80;99.90;;;;;;4983474;28;20093;-67
2023/10/26 12:07:30;;;;;;;7.82;3.20;;;11.80;99.90;;;;;;4985822;28;20502;-67
2023/10/26 12:09:56;;;;;;;5.30;3.28;;;11.70;99.90;;;;;;5024077;28;20497;-66
2023/10/26 12:12:21;;;;;;;5.70;2.45;;;11.70;99.90;;;;;;5029306;28;20052;-65
2023/10/26 12:14:48;;;;;;;6.38;3.72;;;11.70;99.90;;;;;;5020633;28;20478;-66
2023/10/26 12:17:13;;;;;;;5.38;2.92;;;11.70;99.90;;;;;;4986056;28;20453;-66
2023/10/26 12:19:39;;;;;;;5.45;3.58;;;11.70;99.90;;;;;;4997414;28;20055;-69
2023/10/26 12:22:05;;;;;;;4.03;3.03;;;11.80;99.90;;;;;;5019789;28;20125;-69
2023/10/26 12:24:31;;;;;;;5.30;3.63;;;11.70;99.90;;;;;;5000191;28;20405;-70
2023/10/26 12:26:57;;;;;;;5.25;3.15;;;11.80;99.90;;;;;;5021949;28;20055;-69
2023/10/26 12:29:23;;;;;;;4.13;2.70;;;11.90;99.90;;;;;;5005474;28;20042;-69
2023/10/26 12:31:49;;;;;;;4.50;3.00;;;12.00;99.90;;;;;;5011109;28;20478;-69
2023/10/26 12:34:14;;;;;;;5.53;3.75;;;12.00;99.90;;;;;;5002999;28;20053;-69
2023/10/26 12:36:40;;;;;;;4.82;2.90;;;12.20;99.90;;;;;;5020374;28;20034;-69
2023/10/26 12:39:06;;;;;;;4.65;3.10;;;12.30;99.90;;;;;;4999956;28;20201;-69
2023/10/26 12:41:31;;;;;;;3.97;2.72;;;12.30;99.90;;;;;;5012412;28;20121;-69
2023/10/26 12:43:57;;;;;;;5.45;3.58;;;12.30;99.90;;;;;;5016479;28;20038;-69
2023/10/26 12:46:23;;;;;;;6.93;3.78;;;12.20;99.90;;;;;;5003452;28;20052;-70
2023/10/26 12:48:49;;;;;;;5.28;3.65;;;12.20;99.90;;;;;;5001202;28;20047;-69
2023/10/26 12:51:15;;;;;;;5.93;3.00;;;12.10;99.90;;;;;;5009930;28;20038;-69
2023/10/26 12:53:41;;;;;;;7.32;3.88;;;12.10;99.90;;;;;;5018553;28;20041;-69